Time;durP1;ratioP1;P1;durP2;ratioP2;P2;SDS_P1;SDS_P2;PMS_P1;PMS_P2;Temp;Humidity;BMP_temperature;BMP_pressure;BME280_temperature;BME280_humidity;BME280_pressure;Samples;Min_cycle;Max_cycle;Signal;HPM_P1;HPM_P2
2022/09/06 00:00:10;;;;;;;3.45;1.15;;;16.20;99.90;;;;;;4976487;28;20483;-67
2022/09/06 00:02:36;;;;;;;13.95;2.63;;;16.20;99.90;;;;;;4976572;28;20023;-67
2022/09/06 00:05:03;;;;;;;6.43;1.20;;;16.20;99.90;;;;;;4977332;28;20026;-67
2022/09/06 00:07:29;;;;;;;4.72;1.17;;;16.10;99.90;;;;;;4976789;28;20403;-67
2022/09/06 00:09:55;;;;;;;3.80;1.23;;;16.10;99.90;;;;;;4976525;28;20034;-67
2022/09/06 00:12:22;;;;;;;4.28;1.40;;;16.00;99.90;;;;;;4977725;28;20026;-67
2022/09/06 00:14:47;;;;;;;7.53;1.73;;;16.00;99.90;;;;;;4976849;28;20051;-67
2022/09/06 00:17:13;;;;;;;5.63;1.52;;;16.00;99.90;;;;;;4976850;28;20117;-67
2022/09/06 00:19:38;;;;;;;15.73;2.53;;;15.90;99.90;;;;;;4977015;28;20027;-67
2022/09/06 00:22:04;;;;;;;6.10;1.42;;;15.90;99.90;;;;;;4976319;28;20053;-67
2022/09/06 00:24:29;;;;;;;7.00;1.40;;;15.90;99.90;;;;;;4976812;28;20081;-67
2022/09/06 00:26:55;;;;;;;8.20;1.95;;;15.80;99.90;;;;;;4976603;28;20023;-67
2022/09/06 00:29:21;;;;;;;4.30;1.25;;;15.80;99.90;;;;;;4977059;28;20034;-67
2022/09/06 00:31:46;;;;;;;4.43;1.63;;;15.60;99.90;;;;;;4977431;28;20058;-67
2022/09/06 00:34:12;;;;;;;9.48;1.50;;;15.60;99.90;;;;;;4976905;28;20038;-67
2022/09/06 00:36:37;;;;;;;5.95;1.60;;;15.60;99.90;;;;;;4975829;28;20030;-68
2022/09/06 00:39:03;;;;;;;3.75;1.33;;;15.60;99.90;;;;;;4976440;28;20022;-67
2022/09/06 00:41:29;;;;;;;4.13;1.45;;;15.40;99.90;;;;;;4976397;28;20034;-67
2022/09/06 00:43:54;;;;;;;5.97;1.52;;;15.50;99.90;;;;;;4976388;28;20056;-67
2022/09/06 00:46:25;;;;;;;4.88;1.38;;;15.50;99.90;;;;;;4976161;28;20066;-67
2022/09/06 00:49:02;;;;;;;7.10;1.52;;;15.30;99.90;;;;;;4975597;28;20416;-67
2022/09/06 00:51:29;;;;;;;15.02;1.98;;;15.30;99.90;;;;;;4976255;28;20023;-67
2022/09/06 00:53:55;;;;;;;3.15;1.23;;;15.30;99.90;;;;;;4976403;28;20109;-67
2022/09/06 00:56:21;;;;;;;7.40;1.70;;;15.30;99.90;;;;;;4976153;28;20114;-67
2022/09/06 00:58:48;;;;;;;4.72;1.58;;;15.30;99.90;;;;;;4975940;28;20030;-67
2022/09/06 01:01:14;;;;;;;5.90;1.40;;;15.20;99.90;;;;;;4975486;28;20019;-67
2022/09/06 01:03:40;;;;;;;7.57;1.75;;;15.40;99.90;;;;;;4976234;28;20026;-67
2022/09/06 01:06:28;;;;;;;10.20;1.40;;;15.30;99.90;;;;;;4976262;28;20375;-67
2022/09/06 01:08:57;;;;;;;16.50;1.80;;;15.20;99.90;;;;;;4976023;28;20019;-67
2022/09/06 01:11:32;;;;;;;5.22;1.52;;;15.20;99.90;;;;;;4975552;28;20023;-68
2022/09/06 01:14:21;;;;;;;8.70;1.73;;;15.20;99.90;;;;;;4975766;28;20025;-67
2022/09/06 01:17:06;;;;;;;9.43;2.05;;;15.20;99.90;;;;;;4975712;28;20034;-67
2022/09/06 01:19:57;;;;;;;6.43;1.83;;;15.20;99.90;;;;;;4976367;28;20109;-67
2022/09/06 01:22:50;;;;;;;6.93;1.58;;;15.20;99.90;;;;;;4976211;28;20110;-67
2022/09/06 01:25:27;;;;;;;11.73;1.95;;;15.20;99.90;;;;;;4975227;28;20154;-67
2022/09/06 01:28:16;;;;;;;14.05;2.10;;;15.20;99.90;;;;;;4975417;28;20038;-67
2022/09/06 01:30:49;;;;;;;6.45;1.67;;;15.20;99.90;;;;;;4975541;28;20023;-67
2022/09/06 01:33:18;;;;;;;3.38;1.08;;;15.10;99.90;;;;;;4975193;28;20139;-67
2022/09/06 01:36:07;;;;;;;6.05;2.05;;;15.20;99.90;;;;;;4975721;28;20031;-67
2022/09/06 01:38:33;;;;;;;7.57;2.05;;;15.10;99.90;;;;;;4975281;28;20037;-67
2022/09/06 01:40:59;;;;;;;9.68;1.88;;;15.10;99.90;;;;;;4975395;28;20082;-67
2022/09/06 01:43:32;;;;;;;6.95;1.73;;;15.20;99.90;;;;;;4975245;28;20030;-67
2022/09/06 01:46:21;;;;;;;6.47;1.45;;;15.20;99.90;;;;;;4975046;28;20027;-67
2022/09/06 01:49:17;;;;;;;8.38;2.00;;;15.20;99.90;;;;;;4975393;28;20368;-67
2022/09/06 01:52:00;;;;;;;7.50;1.35;;;15.10;99.90;;;;;;4992830;28;20113;-67
2022/09/06 01:55:01;;;;;;;22.95;2.25;;;15.20;99.90;;;;;;4994521;28;20018;-67
2022/09/06 01:57:54;;;;;;;6.25;1.83;;;15.10;99.90;;;;;;4987032;28;20034;-67
2022/09/06 02:00:21;;;;;;;4.63;1.20;;;15.10;99.90;;;;;;4975343;28;20113;-67
2022/09/06 02:02:51;;;;;;;9.48;2.10;;;15.10;99.90;;;;;;4975182;28;20030;-67
2022/09/06 02:05:26;;;;;;;6.57;1.67;;;15.20;99.90;;;;;;4975347;28;20027;-67
2022/09/06 02:07:56;;;;;;;14.48;1.75;;;15.20;99.90;;;;;;4975289;28;20039;-68
2022/09/06 02:10:40;;;;;;;11.57;1.65;;;15.10;99.90;;;;;;4974612;28;20027;-69
2022/09/06 02:13:07;;;;;;;5.15;1.63;;;15.10;99.90;;;;;;4975128;28;20015;-69
2022/09/06 02:15:37;;;;;;;5.13;1.50;;;15.20;99.90;;;;;;4975032;28;20038;-69
2022/09/06 02:18:10;;;;;;;6.72;1.50;;;15.00;99.90;;;;;;4974672;28;20034;-69
2022/09/06 02:20:59;;;;;;;4.28;1.52;;;15.10;99.90;;;;;;4974256;28;20035;-69
2022/09/06 02:23:29;;;;;;;11.55;1.58;;;15.10;99.90;;;;;;4974434;28;20026;-69
2022/09/06 02:26:17;;;;;;;5.88;1.88;;;15.20;99.90;;;;;;4974875;28;20035;-69
2022/09/06 02:28:43;;;;;;;6.30;1.75;;;15.10;99.90;;;;;;4975003;28;20061;-69
2022/09/06 02:31:40;;;;;;;5.35;2.00;;;15.10;99.90;;;;;;4974683;28;20018;-69
2022/09/06 02:34:06;;;;;;;12.63;1.50;;;15.10;99.90;;;;;;4949802;28;20063;-69
2022/09/06 02:36:35;;;;;;;11.23;1.67;;;15.10;99.90;;;;;;4974636;28;20391;-70
2022/09/06 02:39:00;;;;;;;7.97;2.03;;;15.10;99.90;;;;;;4974457;28;20050;-69
2022/09/06 02:41:27;;;;;;;14.27;2.22;;;15.10;99.90;;;;;;4974587;28;20065;-69
2022/09/06 02:43:53;;;;;;;7.10;1.80;;;15.10;99.90;;;;;;4974478;28;20097;-69
2022/09/06 02:46:19;;;;;;;6.53;1.95;;;15.10;99.90;;;;;;4973965;28;20474;-69
2022/09/06 02:48:45;;;;;;;6.30;1.65;;;15.10;99.90;;;;;;4974894;28;20098;-69
2022/09/06 02:51:11;;;;;;;6.05;1.45;;;15.10;99.90;;;;;;4974498;28;20030;-69
2022/09/06 02:53:36;;;;;;;9.10;1.45;;;15.10;99.90;;;;;;4974031;28;20026;-69
2022/09/06 02:56:02;;;;;;;5.55;1.50;;;15.10;99.90;;;;;;4975274;28;20065;-68
2022/09/06 02:58:28;;;;;;;5.72;1.88;;;15.00;99.90;;;;;;4974423;28;20037;-69
2022/09/06 03:00:54;;;;;;;5.65;1.67;;;15.00;99.90;;;;;;4974414;28;20026;-69
2022/09/06 03:03:20;;;;;;;12.70;2.08;;;15.00;99.90;;;;;;4974647;28;20027;-69
2022/09/06 03:05:47;;;;;;;7.30;1.95;;;14.90;99.90;;;;;;4974490;28;20059;-69
2022/09/06 03:08:12;;;;;;;5.60;1.60;;;15.00;99.90;;;;;;4974014;28;20117;-69
2022/09/06 03:10:38;;;;;;;2.35;1.10;;;15.00;99.90;;;;;;4973755;28;20425;-68
2022/09/06 03:13:03;;;;;;;3.63;1.33;;;14.90;99.90;;;;;;4974245;28;20074;-70
2022/09/06 03:15:29;;;;;;;9.18;2.00;;;15.00;99.90;;;;;;4974270;28;20019;-69
2022/09/06 03:17:58;;;;;;;5.95;1.52;;;15.00;99.90;;;;;;4974330;28;20027;-69
2022/09/06 03:20:25;;;;;;;7.68;2.00;;;15.00;99.90;;;;;;4973900;28;20081;-69
2022/09/06 03:22:50;;;;;;;11.27;2.35;;;15.00;99.90;;;;;;4974225;28;20035;-69
2022/09/06 03:25:16;;;;;;;3.17;1.77;;;15.00;99.90;;;;;;4974110;28;20035;-70
2022/09/06 03:27:42;;;;;;;9.65;1.92;;;15.00;99.90;;;;;;4974001;28;20038;-69
2022/09/06 03:30:08;;;;;;;6.20;1.85;;;15.00;99.90;;;;;;4974119;28;20058;-69
2022/09/06 03:32:34;;;;;;;7.32;1.95;;;15.00;99.90;;;;;;4973469;28;20082;-69
2022/09/06 03:35:00;;;;;;;2.95;1.77;;;15.00;99.90;;;;;;4974229;28;20031;-69
2022/09/06 03:37:26;;;;;;;3.65;1.70;;;14.90;99.90;;;;;;4976736;28;20023;-69
2022/09/06 03:39:52;;;;;;;3.78;1.67;;;14.90;99.90;;;;;;4977506;28;20031;-69
2022/09/06 03:42:18;;;;;;;3.33;2.00;;;14.90;99.90;;;;;;4977755;28;20038;-69
2022/09/06 03:44:43;;;;;;;8.10;1.90;;;14.90;99.90;;;;;;4977665;28;20113;-69
2022/09/06 03:47:09;;;;;;;5.72;1.80;;;14.90;99.90;;;;;;4976817;28;20055;-69
2022/09/06 03:49:34;;;;;;;6.68;1.83;;;14.90;99.90;;;;;;4993372;28;20390;-69
2022/09/06 03:52:00;;;;;;;2.13;1.55;;;14.80;99.90;;;;;;4996914;28;20434;-69
2022/09/06 03:54:27;;;;;;;11.20;1.63;;;14.80;99.90;;;;;;4996450;28;20037;-68
2022/09/06 03:56:53;;;;;;;7.13;1.80;;;14.80;99.90;;;;;;4996907;28;20068;-69
2022/09/06 03:59:19;;;;;;;3.50;1.58;;;14.70;99.90;;;;;;4996564;28;20423;-70
2022/09/06 04:01:44;;;;;;;7.07;1.80;;;14.90;99.90;;;;;;4996521;28;20406;-70
2022/09/06 04:04:10;;;;;;;8.27;2.00;;;14.80;99.90;;;;;;4996510;28;20037;-69
2022/09/06 04:06:36;;;;;;;9.10;2.25;;;14.90;99.90;;;;;;4996499;28;20129;-69
2022/09/06 04:09:02;;;;;;;6.85;1.83;;;14.90;99.90;;;;;;4995706;28;20096;-68
2022/09/06 04:11:28;;;;;;;12.27;1.90;;;14.80;99.90;;;;;;4996418;28;20356;-69
2022/09/06 04:13:54;;;;;;;8.80;1.83;;;14.90;99.90;;;;;;4994510;28;20041;-69
2022/09/06 04:16:19;;;;;;;6.45;1.80;;;14.90;99.90;;;;;;4993113;28;20026;-69
2022/09/06 04:18:45;;;;;;;2.80;1.67;;;14.90;99.90;;;;;;4986344;28;20077;-69
2022/09/06 04:21:10;;;;;;;3.75;1.65;;;14.90;99.90;;;;;;4976814;28;20483;-69
2022/09/06 04:23:36;;;;;;;8.57;1.38;;;14.90;99.90;;;;;;4976332;28;20054;-69
2022/09/06 04:26:02;;;;;;;5.32;1.83;;;14.90;99.90;;;;;;4978962;28;20035;-69
2022/09/06 04:28:28;;;;;;;6.28;2.13;;;14.90;99.90;;;;;;4977404;28;20031;-68
2022/09/06 04:30:58;;;;;;;11.40;1.90;;;14.80;99.90;;;;;;4995992;28;20092;-69
2022/09/06 04:33:24;;;;;;;10.35;2.22;;;14.80;99.90;;;;;;4989259;28;20030;-69
2022/09/06 04:35:52;;;;;;;3.25;1.70;;;14.90;99.90;;;;;;4976559;28;20023;-70
2022/09/06 04:38:17;;;;;;;15.70;2.20;;;14.80;99.90;;;;;;4976371;28;20093;-69
2022/09/06 04:40:43;;;;;;;5.88;1.70;;;14.70;99.90;;;;;;4976477;28;20540;-69
2022/09/06 04:43:08;;;;;;;8.48;1.83;;;14.80;99.90;;;;;;4976416;28;20027;-69
2022/09/06 04:45:34;;;;;;;4.20;1.55;;;14.90;99.90;;;;;;4976364;28;20060;-69
2022/09/06 04:47:59;;;;;;;8.90;2.28;;;14.90;99.90;;;;;;4975299;28;20035;-69
2022/09/06 04:50:25;;;;;;;9.77;2.33;;;14.90;99.90;;;;;;4976550;28;20093;-69
2022/09/06 04:52:51;;;;;;;12.73;2.15;;;14.80;99.90;;;;;;4985774;28;20026;-69
2022/09/06 04:55:16;;;;;;;5.82;2.00;;;14.80;99.90;;;;;;4995587;28;20030;-69
2022/09/06 04:57:42;;;;;;;6.90;1.88;;;14.90;99.90;;;;;;4995533;28;20121;-69
2022/09/06 05:00:08;;;;;;;7.65;1.88;;;14.90;99.90;;;;;;4995574;28;20106;-69
2022/09/06 05:02:34;;;;;;;6.10;2.05;;;14.90;99.90;;;;;;4993687;28;20034;-69
2022/09/06 05:04:59;;;;;;;7.00;1.88;;;14.90;99.90;;;;;;4976131;28;20041;-69
2022/09/06 05:07:25;;;;;;;7.35;1.67;;;15.00;99.90;;;;;;4975692;28;20062;-68
2022/09/06 05:09:51;;;;;;;7.20;2.13;;;15.00;99.90;;;;;;4976463;28;20030;-69
2022/09/06 05:12:16;;;;;;;3.03;1.65;;;15.00;99.90;;;;;;4975646;28;20030;-69
2022/09/06 05:14:42;;;;;;;7.00;1.80;;;15.00;99.90;;;;;;4975834;28;20031;-69
2022/09/06 05:17:07;;;;;;;6.55;2.30;;;15.00;99.90;;;;;;4976368;28;20146;-69
2022/09/06 05:19:33;;;;;;;5.20;1.40;;;14.90;99.90;;;;;;4976511;28;20058;-69
2022/09/06 05:21:58;;;;;;;6.22;1.85;;;14.90;99.90;;;;;;4975937;28;20026;-69
2022/09/06 05:24:24;;;;;;;9.60;2.20;;;15.00;99.90;;;;;;4975865;28;20059;-69
2022/09/06 05:26:49;;;;;;;6.80;1.73;;;15.10;99.90;;;;;;4975288;28;20472;-69
2022/09/06 05:29:15;;;;;;;2.53;1.77;;;15.10;99.90;;;;;;4975503;28;20019;-69
2022/09/06 05:31:41;;;;;;;3.35;1.65;;;15.10;99.90;;;;;;4975782;28;20026;-69
2022/09/06 05:34:06;;;;;;;9.48;1.98;;;15.10;99.90;;;;;;4974864;28;20102;-69
2022/09/06 05:36:32;;;;;;;12.77;2.20;;;15.20;99.90;;;;;;4975939;28;20460;-69
2022/09/06 05:38:58;;;;;;;10.48;1.83;;;15.20;99.90;;;;;;4975501;28;20033;-69
2022/09/06 05:41:24;;;;;;;5.10;2.03;;;15.30;99.90;;;;;;4975359;28;20436;-69
2022/09/06 05:43:50;;;;;;;5.10;1.85;;;15.30;99.90;;;;;;4974738;28;20066;-69
2022/09/06 05:46:15;;;;;;;6.70;2.40;;;15.30;99.90;;;;;;4975546;28;20403;-69
2022/09/06 05:48:42;;;;;;;5.15;1.63;;;15.40;99.90;;;;;;4975116;28;20026;-69
2022/09/06 05:51:11;;;;;;;5.63;2.03;;;15.40;99.90;;;;;;4974772;28;20057;-69
2022/09/06 05:53:46;;;;;;;12.70;2.47;;;15.40;99.90;;;;;;4975329;28;20379;-69
2022/09/06 05:56:13;;;;;;;5.82;1.92;;;15.40;99.90;;;;;;4975347;28;20058;-69
2022/09/06 05:58:39;;;;;;;8.63;1.80;;;15.50;99.90;;;;;;4974530;28;20521;-69
2022/09/06 06:01:19;;;;;;;6.05;1.70;;;15.50;99.90;;;;;;4975290;28;20117;-69
2022/09/06 06:03:56;;;;;;;4.93;1.95;;;15.60;99.90;;;;;;4975306;28;20521;-69
2022/09/06 06:06:22;;;;;;;9.00;1.52;;;15.60;99.90;;;;;;4974380;28;20475;-69
2022/09/06 06:08:48;;;;;;;2.90;1.77;;;15.60;99.90;;;;;;4974605;28;20042;-69
2022/09/06 06:11:15;;;;;;;7.53;2.08;;;15.70;99.90;;;;;;4974912;28;20022;-69
2022/09/06 06:13:42;;;;;;;7.47;2.00;;;15.70;99.90;;;;;;4975367;28;20050;-70
2022/09/06 06:16:12;;;;;;;11.10;2.65;;;15.80;99.90;;;;;;4974256;28;20097;-70
2022/09/06 06:18:39;;;;;;;4.18;2.20;;;15.80;99.90;;;;;;4974987;28;20138;-70
2022/09/06 06:21:13;;;;;;;6.03;1.58;;;15.80;99.90;;;;;;4974774;28;20101;-70
2022/09/06 06:23:40;;;;;;;8.98;1.92;;;15.90;99.90;;;;;;4974345;28;20034;-69
2022/09/06 06:26:07;;;;;;;12.95;1.77;;;16.00;99.90;;;;;;4974664;28;20038;-70
2022/09/06 06:28:34;;;;;;;4.63;1.77;;;16.00;99.90;;;;;;4974771;28;20042;-70
2022/09/06 06:31:00;;;;;;;8.88;1.60;;;16.10;99.90;;;;;;4974649;28;20109;-70
2022/09/06 06:33:25;;;;;;;8.30;1.70;;;16.10;99.90;;;;;;4974108;28;20105;-69
2022/09/06 06:36:03;;;;;;;4.10;1.73;;;16.10;99.90;;;;;;4974551;28;20390;-69
2022/09/06 06:38:33;;;;;;;11.73;2.00;;;16.20;99.90;;;;;;4974509;28;20027;-69
2022/09/06 06:40:59;;;;;;;4.07;1.40;;;16.20;99.90;;;;;;4974846;28;20027;-69
2022/09/06 06:43:26;;;;;;;3.63;1.40;;;16.30;99.90;;;;;;4974087;28;20027;-69
2022/09/06 06:45:52;;;;;;;5.57;1.80;;;16.30;99.90;;;;;;4974503;28;20027;-70
2022/09/06 06:48:17;;;;;;;8.88;2.30;;;16.40;99.90;;;;;;4974527;28;20070;-69
2022/09/06 06:50:43;;;;;;;4.65;2.22;;;16.40;99.90;;;;;;4974450;28;20037;-70
2022/09/06 06:53:09;;;;;;;9.90;2.28;;;16.40;99.90;;;;;;4974437;28;20050;-69
2022/09/06 06:55:34;;;;;;;6.18;2.30;;;16.50;99.90;;;;;;4974403;28;20371;-69
2022/09/06 06:58:00;;;;;;;3.78;1.60;;;16.50;99.90;;;;;;4973822;28;20030;-70
2022/09/06 07:00:26;;;;;;;11.50;1.80;;;16.60;99.90;;;;;;4974758;28;20426;-70
2022/09/06 07:02:52;;;;;;;8.50;2.08;;;16.60;99.90;;;;;;4974904;28;20041;-69
2022/09/06 07:05:18;;;;;;;3.05;1.50;;;16.70;99.90;;;;;;4973771;28;20030;-69
2022/09/06 07:07:43;;;;;;;18.40;2.30;;;16.80;99.90;;;;;;4974037;28;20093;-69
2022/09/06 07:10:09;;;;;;;4.88;2.00;;;16.90;99.90;;;;;;4975223;28;20023;-69
2022/09/06 07:12:35;;;;;;;7.07;1.70;;;17.00;99.90;;;;;;4978392;28;20015;-69
2022/09/06 07:15:01;;;;;;;6.85;1.95;;;17.10;99.90;;;;;;4977512;28;20431;-69
2022/09/06 07:17:28;;;;;;;7.45;2.20;;;17.20;99.90;;;;;;4977913;28;20502;-69
2022/09/06 07:19:53;;;;;;;15.40;2.47;;;17.30;99.90;;;;;;4977941;28;20031;-69
2022/09/06 07:22:19;;;;;;;8.02;1.85;;;17.20;99.90;;;;;;4978451;28;20380;-70
2022/09/06 07:24:45;;;;;;;4.40;1.52;;;17.10;99.90;;;;;;4977323;28;20110;-69
2022/09/06 07:27:10;;;;;;;7.55;1.90;;;17.30;99.90;;;;;;4977977;28;20058;-69
2022/09/06 07:29:36;;;;;;;8.07;1.50;;;17.20;99.90;;;;;;4977779;28;20034;-70
2022/09/06 07:32:03;;;;;;;7.72;1.85;;;17.30;99.90;;;;;;4977740;28;20023;-69
2022/09/06 07:34:28;;;;;;;9.95;2.55;;;17.50;99.90;;;;;;4977689;28;20031;-70
2022/09/06 07:36:55;;;;;;;10.32;1.58;;;17.50;99.90;;;;;;4977973;28;20509;-69
2022/09/06 07:39:20;;;;;;;10.50;1.50;;;17.40;99.90;;;;;;4977454;28;20035;-69
2022/09/06 07:41:46;;;;;;;9.00;1.63;;;17.70;99.90;;;;;;4978281;28;20027;-69
2022/09/06 07:44:12;;;;;;;5.97;2.13;;;18.00;99.90;;;;;;4978201;28;20072;-70
2022/09/06 07:46:37;;;;;;;14.88;1.92;;;18.30;99.90;;;;;;4977348;28;20054;-70
2022/09/06 07:49:04;;;;;;;7.18;1.63;;;18.70;99.90;;;;;;4976860;28;20101;-70
2022/09/06 07:51:30;;;;;;;7.50;1.60;;;19.00;99.90;;;;;;4977777;28;20019;-70
2022/09/06 07:53:56;;;;;;;12.73;2.00;;;19.10;99.90;;;;;;4977350;28;20022;-70
2022/09/06 07:56:23;;;;;;;5.03;1.38;;;19.30;99.90;;;;;;4976990;28;20031;-69
2022/09/06 07:58:50;;;;;;;7.30;1.60;;;19.40;99.90;;;;;;4975889;28;20030;-69
2022/09/06 08:01:18;;;;;;;8.10;1.95;;;19.60;99.90;;;;;;4977468;28;20089;-69
2022/09/06 08:03:45;;;;;;;4.97;1.40;;;19.70;99.90;;;;;;4975844;28;20051;-69
2022/09/06 08:06:11;;;;;;;4.43;1.48;;;19.80;99.90;;;;;;4983701;28;20092;-70
2022/09/06 08:08:37;;;;;;;5.28;1.70;;;20.00;99.90;;;;;;4995311;28;20034;-70
2022/09/06 08:11:06;;;;;;;5.68;1.75;;;20.20;99.90;;;;;;4996570;28;20031;-70
2022/09/06 08:13:32;;;;;;;3.45;1.77;;;20.50;99.90;;;;;;4996898;28;20018;-70
2022/09/06 08:16:05;;;;;;;9.68;2.25;;;20.70;99.90;;;;;;4996893;28;20356;-70
2022/09/06 08:18:32;;;;;;;6.53;1.40;;;20.90;99.90;;;;;;4996845;28;20018;-70
2022/09/06 08:21:14;;;;;;;7.78;1.75;;;21.10;99.90;;;;;;4995885;28;20432;-70
2022/09/06 08:23:48;;;;;;;8.77;1.75;;;21.50;99.90;;;;;;4996160;28;20085;-70
2022/09/06 08:26:16;;;;;;;7.55;1.85;;;21.70;99.90;;;;;;4996373;28;20121;-69
2022/09/06 08:28:41;;;;;;;3.40;1.67;;;21.90;99.90;;;;;;4995916;28;20442;-69
2022/09/06 08:31:18;;;;;;;4.80;2.15;;;22.00;99.90;;;;;;4996321;28;20022;-70
2022/09/06 08:33:44;;;;;;;8.38;2.08;;;22.00;99.90;;;;;;4994122;28;20022;-68
2022/09/06 08:36:10;;;;;;;6.70;2.10;;;21.70;99.90;;;;;;4991328;28;20025;-69
2022/09/06 08:38:36;;;;;;;4.30;1.85;;;21.80;99.90;;;;;;4995835;28;20033;-69
2022/09/06 08:41:16;;;;;;;11.57;2.15;;;22.10;99.90;;;;;;4991804;28;20459;-69
2022/09/06 08:44:03;;;;;;;9.15;2.63;;;22.30;99.90;;;;;;4996069;28;20022;-69
2022/09/06 08:46:36;;;;;;;4.88;1.70;;;22.40;99.90;;;;;;4995299;28;20033;-69
2022/09/06 08:49:03;;;;;;;11.98;1.65;;;22.20;99.90;;;;;;4995729;28;20423;-69
2022/09/06 08:51:31;;;;;;;5.63;2.08;;;21.90;99.90;;;;;;4996207;28;20027;-69
2022/09/06 08:54:05;;;;;;;5.38;2.00;;;22.10;99.90;;;;;;4977803;28;20023;-69
2022/09/06 08:56:36;;;;;;;;;;;22.40;99.90;;;;;;4976620;28;20050;-70
2022/09/06 08:59:05;;;;;;;10.73;2.03;;;22.70;99.90;;;;;;4975603;28;19996;-69
2022/09/06 09:02:10;;;;;;;16.85;1.92;;;23.20;99.90;;;;;;4975992;28;20113;-70
2022/09/06 09:04:42;;;;;;;7.95;1.75;;;23.60;99.90;;;;;;4959841;28;20545;-69
2022/09/06 09:07:37;;;;;;;3.80;2.15;;;23.70;99.90;;;;;;4992371;28;20371;-69
2022/09/06 09:10:08;;;;;;;17.73;2.22;;;23.90;99.90;;;;;;4977864;28;20038;-69
2022/09/06 09:12:44;;;;;;;8.90;2.22;;;24.10;99.90;;;;;;4995353;28;20050;-69
2022/09/06 09:15:13;;;;;;;14.82;1.65;;;24.30;99.90;;;;;;4989873;28;20015;-69
2022/09/06 09:17:39;;;;;;;7.88;1.92;;;24.30;99.90;;;;;;4973938;28;20027;-69
2022/09/06 09:20:07;;;;;;;11.93;2.50;;;24.20;99.90;;;;;;4975661;28;20034;-69
2022/09/06 09:22:34;;;;;;;12.55;2.03;;;24.00;99.90;;;;;;4975696;28;20035;-69
2022/09/06 09:25:01;;;;;;;7.97;2.00;;;23.70;99.90;;;;;;4975617;28;20026;-70
2022/09/06 09:27:28;;;;;;;9.00;1.50;;;23.80;99.90;;;;;;4974740;28;20054;-69
2022/09/06 09:29:53;;;;;;;14.20;2.10;;;24.20;99.90;;;;;;4975602;28;20030;-70
2022/09/06 09:32:48;;;;;;;7.72;1.80;;;24.50;99.90;;;;;;4975507;28;20027;-70
2022/09/06 09:35:22;;;;;;;5.30;1.75;;;24.60;99.90;;;;;;4962480;28;20035;-69
2022/09/06 09:38:11;;;;;;;4.05;1.80;;;24.40;99.90;;;;;;4974947;28;20027;-69
2022/09/06 09:40:48;;;;;;;4.88;1.83;;;24.20;99.90;;;;;;4975523;28;20352;-70
2022/09/06 09:43:14;;;;;;;6.43;1.90;;;24.10;99.90;;;;;;4975626;28;20476;-70
2022/09/06 09:45:39;;;;;;;14.55;1.75;;;24.40;99.90;;;;;;4974758;28;20031;-69
2022/09/06 09:48:25;;;;;;;8.25;1.85;;;24.60;99.90;;;;;;4975104;28;20488;-70
2022/09/06 09:50:52;;;;;;;6.93;1.67;;;24.80;99.90;;;;;;4973809;28;20023;-71
2022/09/06 09:53:21;;;;;;;13.85;1.40;;;25.10;99.90;;;;;;4975260;28;20031;-71
2022/09/06 09:55:48;;;;;;;7.65;1.85;;;25.30;99.90;;;;;;4975019;28;20027;-70
2022/09/06 09:58:33;;;;;;;5.45;1.83;;;25.40;99.90;;;;;;4974805;28;20041;-70
2022/09/06 10:01:12;;;;;;;11.27;1.58;;;25.30;99.90;;;;;;4975696;28;20028;-70
2022/09/06 10:03:38;;;;;;;7.32;1.75;;;25.40;99.90;;;;;;4976190;28;20037;-68
2022/09/06 10:06:04;;;;;;;10.25;1.65;;;25.20;99.90;;;;;;4982123;28;20379;-69
2022/09/06 10:08:32;;;;;;;4.30;1.88;;;24.90;99.90;;;;;;4994376;28;20450;-70
2022/09/06 10:10:58;;;;;;;4.80;1.73;;;24.40;99.90;;;;;;4993873;28;20382;-70
2022/09/06 10:13:28;;;;;;;3.40;1.58;;;24.40;99.90;;;;;;4994471;28;20030;-70
2022/09/06 10:15:55;;;;;;;12.55;1.83;;;24.40;99.90;;;;;;4994653;28;20379;-71
2022/09/06 10:18:33;;;;;;;9.65;1.67;;;24.20;99.90;;;;;;4994252;28;20105;-71
2022/09/06 10:21:04;;;;;;;7.82;1.70;;;24.10;99.90;;;;;;4987100;28;20059;-71
2022/09/06 10:23:30;;;;;;;6.15;1.60;;;24.00;99.90;;;;;;4975123;28;20383;-70
2022/09/06 10:26:04;;;;;;;7.13;1.73;;;23.80;99.90;;;;;;4974712;28;20038;-70
2022/09/06 10:28:40;;;;;;;6.97;1.98;;;23.50;99.90;;;;;;4974623;28;20022;-70
2022/09/06 10:31:35;;;;;;;6.60;1.80;;;23.40;99.90;;;;;;4975017;28;20045;-71
2022/09/06 10:34:09;;;;;;;5.72;1.95;;;23.70;99.90;;;;;;4974285;28;20073;-71
2022/09/06 10:36:39;;;;;;;14.40;1.92;;;24.40;99.90;;;;;;4984652;28;20023;-70
2022/09/06 10:39:44;;;;;;;11.20;1.75;;;24.70;99.90;;;;;;4994175;28;20080;-72
2022/09/06 10:42:46;;;;;;;6.55;1.63;;;25.10;99.90;;;;;;4994098;28;20101;-71
2022/09/06 10:45:15;;;;;;;7.03;1.58;;;25.50;99.90;;;;;;4995298;28;20508;-71
2022/09/06 10:48:01;;;;;;;4.18;1.83;;;25.60;99.90;;;;;;4987582;28;20398;-71
2022/09/06 10:50:46;;;;;;;4.03;1.40;;;25.40;99.90;;;;;;4979035;28;20371;-70
2022/09/06 10:53:37;;;;;;;8.43;1.88;;;25.30;99.90;;;;;;4981157;28;20034;-70
2022/09/06 10:56:10;;;;;;;5.53;2.25;;;25.60;99.90;;;;;;4985401;28;20081;-70
2022/09/06 10:58:47;;;;;;;7.55;1.65;;;25.40;99.90;;;;;;4986960;28;20382;-71
2022/09/06 11:01:24;;;;;;;2.85;1.52;;;25.00;99.90;;;;;;4989914;28;20042;-71
2022/09/06 11:03:50;;;;;;;7.38;2.10;;;25.00;99.90;;;;;;4985153;28;20023;-71
2022/09/06 11:06:18;;;;;;;7.03;1.70;;;25.00;99.90;;;;;;4978301;28;20023;-71
2022/09/06 11:08:58;;;;;;;7.32;1.52;;;24.60;99.90;;;;;;4977527;28;20027;-72
2022/09/06 11:11:48;;;;;;;6.40;1.52;;;24.30;99.90;;;;;;4978212;28;20031;-71
2022/09/06 11:14:15;;;;;;;7.47;1.98;;;24.20;99.90;;;;;;4978044;28;20019;-70
2022/09/06 11:16:59;;;;;;;4.72;1.55;;;24.10;99.90;;;;;;4978293;28;20027;-71
2022/09/06 11:19:38;;;;;;;6.32;1.38;;;24.00;99.90;;;;;;4977975;28;20030;-70
2022/09/06 11:22:23;;;;;;;14.63;2.03;;;23.80;99.90;;;;;;4977712;28;20041;-71
2022/09/06 11:25:00;;;;;;;10.45;1.65;;;23.60;99.90;;;;;;4991635;28;20173;-72
2022/09/06 11:27:33;;;;;;;4.85;1.50;;;23.50;99.90;;;;;;4978125;28;20101;-71
2022/09/06 11:30:01;;;;;;;3.65;1.90;;;23.40;99.90;;;;;;4978220;28;20011;-70
2022/09/06 11:32:31;;;;;;;6.22;1.48;;;23.40;99.90;;;;;;4977961;28;20023;-70
2022/09/06 11:35:00;;;;;;;4.30;1.27;;;23.40;99.90;;;;;;4979123;28;20375;-70
2022/09/06 11:37:31;;;;;;;2.75;1.30;;;23.60;99.90;;;;;;4988814;28;20027;-70
2022/09/06 11:40:23;;;;;;;5.85;1.35;;;23.60;99.90;;;;;;4977896;28;20023;-71
2022/09/06 11:42:48;;;;;;;4.95;1.10;;;23.40;99.90;;;;;;4977951;28;20054;-70
2022/09/06 11:45:20;;;;;;;4.88;1.33;;;23.10;99.90;;;;;;4977720;28;20447;-71
2022/09/06 11:47:47;;;;;;;5.65;1.80;;;23.20;99.90;;;;;;4977583;28;20468;-68
2022/09/06 11:50:23;;;;;;;7.93;1.33;;;23.30;99.90;;;;;;4977021;28;20483;-69
2022/09/06 11:52:54;;;;;;;5.60;1.70;;;23.20;99.90;;;;;;4977331;28;20061;-69
2022/09/06 11:55:24;;;;;;;4.90;1.83;;;23.10;99.90;;;;;;4991807;28;20109;-69
2022/09/06 11:57:56;;;;;;;3.22;1.63;;;23.10;99.90;;;;;;4995646;28;20451;-69
2022/09/06 12:00:23;;;;;;;3.35;1.45;;;23.20;99.90;;;;;;4980579;28;20491;-69
2022/09/06 12:02:50;;;;;;;4.32;1.38;;;23.30;99.90;;;;;;4977280;28;20076;-69
2022/09/06 12:05:27;;;;;;;4.72;1.52;;;23.20;99.90;;;;;;4988959;28;20058;-69
2022/09/06 12:08:30;;;;;;;18.38;1.95;;;23.10;99.90;;;;;;4980008;28;20031;-70
2022/09/06 12:11:22;;;;;;;7.70;1.73;;;23.00;99.90;;;;;;4977508;28;20050;-69
2022/09/06 12:14:01;;;;;;;2.70;1.23;;;23.00;99.90;;;;;;4977385;28;20023;-69
2022/09/06 12:16:58;;;;;;;7.00;1.52;;;23.10;99.90;;;;;;4977404;28;20030;-69
2022/09/06 12:19:39;;;;;;;8.05;2.10;;;23.20;99.90;;;;;;4977441;28;20363;-70
2022/09/06 12:22:40;;;;;;;6.38;1.42;;;22.90;99.90;;;;;;4977094;28;20482;-69
2022/09/06 12:25:33;;;;;;;4.28;1.23;;;22.70;99.90;;;;;;4958883;28;20038;-70
2022/09/06 12:28:01;;;;;;;7.75;1.50;;;22.60;99.90;;;;;;4977180;28;20062;-68
2022/09/06 12:30:43;;;;;;;2.00;1.20;;;22.50;99.90;;;;;;4976866;28;20030;-69
2022/09/06 12:33:37;;;;;;;6.25;1.55;;;22.70;99.90;;;;;;4975624;28;20058;-70
2022/09/06 12:36:15;;;;;;;14.00;1.75;;;22.40;99.90;;;;;;4976689;28;20085;-70
2022/09/06 12:39:10;;;;;;;10.75;1.45;;;22.30;99.90;;;;;;4976694;28;20030;-70
2022/09/06 12:41:40;;;;;;;5.63;1.67;;;22.20;99.90;;;;;;4977021;28;20082;-70
2022/09/06 12:44:06;;;;;;;5.90;1.40;;;22.20;99.90;;;;;;4976229;28;20023;-69
2022/09/06 12:46:33;;;;;;;7.80;1.67;;;22.20;99.90;;;;;;4976504;28;20475;-70
2022/09/06 12:49:07;;;;;;;3.22;1.48;;;22.20;99.90;;;;;;4976482;28;20034;-69
2022/09/06 12:51:34;;;;;;;9.98;1.25;;;22.20;99.90;;;;;;4976699;28;20087;-69
2022/09/06 12:54:23;;;;;;;10.43;1.77;;;22.10;99.90;;;;;;4976113;28;20027;-69
2022/09/06 12:56:50;;;;;;;3.08;1.27;;;21.90;99.90;;;;;;4976763;28;20042;-69
2022/09/06 12:59:19;;;;;;;6.55;1.13;;;21.60;99.90;;;;;;4976737;28;20415;-69
2022/09/06 13:01:51;;;;;;;5.40;1.98;;;21.70;99.90;;;;;;4976562;28;20034;-69
2022/09/06 13:04:41;;;;;;;11.20;1.73;;;21.60;99.90;;;;;;4975818;28;20095;-69